createdAt,value
2017-06-16T00:00:14.187Z,1027.61
2017-06-16T00:01:14.185Z,1027.58
2017-06-16T00:02:14.181Z,1027.56
2017-06-16T00:03:14.182Z,1027.6
2017-06-16T00:04:14.175Z,1027.64
2017-06-16T00:05:14.173Z,1027.67
2017-06-16T00:06:14.171Z,1027.62
2017-06-16T00:07:14.167Z,1027.48
2017-06-16T00:08:14.164Z,1027.35
2017-06-16T00:09:14.162Z,1027.28
2017-06-16T00:10:14.158Z,1027.23
2017-06-16T00:11:14.156Z,1027.38
2017-06-16T00:12:14.154Z,1027.48
2017-06-16T00:13:14.149Z,1027.48
2017-06-16T00:14:14.147Z,1027.46
2017-06-16T00:15:14.144Z,1027.44
2017-06-16T00:16:14.142Z,1027.46
2017-06-16T00:17:14.138Z,1027.43
2017-06-16T00:18:14.135Z,1027.49
2017-06-16T00:19:14.133Z,1027.48
2017-06-16T00:20:14.130Z,1027.43
2017-06-16T00:21:14.127Z,1027.42
2017-06-16T00:22:14.124Z,1027.34
2017-06-16T00:23:14.122Z,1027.32
2017-06-16T00:24:14.118Z,1027.24
2017-06-16T00:25:14.116Z,1027.23
2017-06-16T00:26:14.113Z,1027.19
2017-06-16T00:27:14.110Z,1027.17
2017-06-16T00:28:14.106Z,1027.19
2017-06-16T00:29:14.103Z,1027.19
2017-06-16T00:30:14.101Z,1027.23
2017-06-16T00:31:14.098Z,1027.22
2017-06-16T00:32:14.095Z,1027.21
2017-06-16T00:33:14.095Z,1027.17
2017-06-16T00:34:14.090Z,1027.15
2017-06-16T00:35:14.086Z,1027.13
2017-06-16T00:36:14.084Z,1027.12
2017-06-16T00:37:14.081Z,1027.08
2017-06-16T00:38:14.079Z,1027.13
2017-06-16T00:39:14.075Z,1027.2
2017-06-16T00:40:14.072Z,1027.23
2017-06-16T00:41:14.070Z,1027.25
2017-06-16T00:42:14.065Z,1027.24
2017-06-16T00:43:14.063Z,1027.29
2017-06-16T00:44:14.058Z,1027.33
2017-06-16T00:45:14.060Z,1027.36
2017-06-16T00:46:14.053Z,1027.39
2017-06-16T00:47:14.052Z,1027.39
2017-06-16T00:48:14.047Z,1027.41
2017-06-16T00:49:14.045Z,1027.45
2017-06-16T00:50:14.041Z,1027.47
2017-06-16T00:51:14.038Z,1027.49
2017-06-16T00:52:14.035Z,1027.47
2017-06-16T00:53:14.032Z,1027.47
2017-06-16T00:54:14.029Z,1027.44
2017-06-16T00:55:14.027Z,1027.45
2017-06-16T00:56:14.023Z,1027.53
2017-06-16T00:57:14.020Z,1027.59
2017-06-16T00:58:14.017Z,1027.62
2017-06-16T00:59:14.014Z,1027.62
2017-06-16T01:00:14.011Z,1027.65
2017-06-16T01:01:14.008Z,1027.67
2017-06-16T01:02:14.005Z,1027.66
2017-06-16T01:03:14.002Z,1027.66
2017-06-16T01:04:13.999Z,1027.72
2017-06-16T01:05:13.995Z,1027.75
2017-06-16T01:06:13.992Z,1027.71
2017-06-16T01:07:13.989Z,1027.7
2017-06-16T01:08:13.985Z,1027.69
2017-06-16T01:09:13.982Z,1027.75
2017-06-16T01:10:13.980Z,1027.82
2017-06-16T01:11:13.976Z,1027.83
2017-06-16T01:12:13.973Z,1027.89
2017-06-16T01:13:13.970Z,1027.85
2017-06-16T01:14:13.968Z,1027.87
2017-06-16T01:15:13.963Z,1027.89
2017-06-16T01:16:13.959Z,1027.85
2017-06-16T01:17:13.957Z,1027.86
2017-06-16T01:18:13.953Z,1027.86
2017-06-16T01:19:13.950Z,1027.81
2017-06-16T01:20:13.946Z,1027.81
2017-06-16T01:21:13.943Z,1027.81
2017-06-16T01:22:13.941Z,1027.82
2017-06-16T01:23:13.938Z,1027.86
2017-06-16T01:24:13.933Z,1027.83
2017-06-16T01:25:13.930Z,1027.8
2017-06-16T01:26:13.927Z,1027.75
2017-06-16T01:27:13.923Z,1027.8
2017-06-16T01:28:13.922Z,1027.81
2017-06-16T01:29:13.917Z,1027.87
2017-06-16T01:30:13.913Z,1027.85
2017-06-16T01:31:13.910Z,1027.88
2017-06-16T01:32:13.906Z,1027.91
2017-06-16T01:33:13.904Z,1027.91
2017-06-16T01:34:13.899Z,1027.97
2017-06-16T01:35:13.896Z,1027.96
2017-06-16T01:36:13.893Z,1027.94
2017-06-16T01:37:13.888Z,1027.93
2017-06-16T01:38:13.885Z,1027.98
2017-06-16T01:39:13.882Z,1027.96
2017-06-16T01:40:13.879Z,1027.98
2017-06-16T01:41:13.875Z,1027.96
2017-06-16T01:42:13.872Z,1027.98
2017-06-16T01:43:13.868Z,1027.99
2017-06-16T01:44:13.865Z,1027.94
2017-06-16T01:45:13.860Z,1027.93
2017-06-16T01:46:13.858Z,1027.86
2017-06-16T01:47:13.855Z,1027.84
2017-06-16T01:48:13.850Z,1027.83
2017-06-16T01:49:13.850Z,1027.78
2017-06-16T01:50:13.845Z,1027.77
2017-06-16T01:51:13.840Z,1027.75
2017-06-16T01:52:13.835Z,1027.76
2017-06-16T01:53:13.832Z,1027.71
2017-06-16T01:54:13.829Z,1027.74
2017-06-16T01:55:13.826Z,1027.77
2017-06-16T01:56:13.822Z,1027.8
2017-06-16T01:57:13.818Z,1027.78
2017-06-16T01:58:13.815Z,1027.85
2017-06-16T01:59:13.810Z,1027.88
2017-06-16T02:00:13.808Z,1027.9
2017-06-16T02:01:13.804Z,1027.92
2017-06-16T02:02:13.800Z,1027.94
2017-06-16T02:03:13.797Z,1027.92
2017-06-16T02:04:13.793Z,1027.96
2017-06-16T02:05:13.790Z,1028
2017-06-16T02:06:13.786Z,1028.04
2017-06-16T02:07:13.783Z,1028.07
2017-06-16T02:08:13.780Z,1028.13
2017-06-16T02:09:13.776Z,1028.11
2017-06-16T02:10:13.772Z,1028.1
2017-06-16T02:11:13.769Z,1028.07
2017-06-16T02:12:13.765Z,1028.1
2017-06-16T02:13:13.762Z,1028.08
2017-06-16T02:14:13.758Z,1028.09
2017-06-16T02:15:13.754Z,1028.08
2017-06-16T02:16:13.751Z,1028.02
2017-06-16T02:17:13.746Z,1028
2017-06-16T02:18:13.743Z,1027.98
2017-06-16T02:19:13.740Z,1027.9
2017-06-16T02:20:13.735Z,1027.89
2017-06-16T02:21:13.732Z,1027.84
2017-06-16T02:22:13.729Z,1027.76
2017-06-16T02:23:13.725Z,1027.72
2017-06-16T02:24:13.722Z,1027.71
2017-06-16T02:25:13.718Z,1027.72
2017-06-16T02:26:13.714Z,1027.69
2017-06-16T02:27:13.711Z,1027.68
2017-06-16T02:28:13.706Z,1027.61
2017-06-16T02:29:13.703Z,1027.55
2017-06-16T02:30:13.699Z,1027.55
2017-06-16T02:31:13.696Z,1027.49
2017-06-16T02:32:13.691Z,1027.46
2017-06-16T02:33:13.688Z,1027.44
2017-06-16T02:34:13.685Z,1027.42
2017-06-16T02:35:13.682Z,1027.39
2017-06-16T02:36:13.678Z,1027.38
2017-06-16T02:37:13.675Z,1027.4
2017-06-16T02:38:13.671Z,1027.33
2017-06-16T02:39:13.666Z,1027.33
2017-06-16T02:40:13.666Z,1027.33
2017-06-16T02:41:13.661Z,1027.28
2017-06-16T02:42:13.657Z,1027.27
2017-06-16T02:43:13.653Z,1027.25
2017-06-16T02:44:13.650Z,1027.23
2017-06-16T02:45:13.647Z,1027.19
2017-06-16T02:46:13.643Z,1027.17
2017-06-16T02:47:13.639Z,1027.18
2017-06-16T02:48:13.636Z,1027.14
2017-06-16T02:49:13.633Z,1027.1
2017-06-16T02:50:13.629Z,1027.12
2017-06-16T02:51:13.626Z,1027.09
2017-06-16T02:52:13.623Z,1027.06
2017-06-16T02:53:13.620Z,1027.1
2017-06-16T02:54:13.616Z,1027.08
2017-06-16T02:55:13.613Z,1027.06
2017-06-16T02:56:13.610Z,1027.07
2017-06-16T02:57:13.607Z,1026.97
2017-06-16T02:58:13.603Z,1026.98
2017-06-16T02:59:13.600Z,1027.02
2017-06-16T03:00:13.598Z,1026.99
2017-06-16T03:01:13.594Z,1026.96
2017-06-16T03:02:13.591Z,1026.93
2017-06-16T03:03:13.588Z,1026.9
2017-06-16T03:04:13.585Z,1026.83
2017-06-16T03:05:13.581Z,1026.87
2017-06-16T03:06:13.578Z,1026.86
2017-06-16T03:07:13.575Z,1026.81
2017-06-16T03:08:13.573Z,1026.84
2017-06-16T03:09:13.569Z,1026.86
2017-06-16T03:10:13.566Z,1026.82
2017-06-16T03:11:13.564Z,1026.8
2017-06-16T03:12:13.560Z,1026.83
2017-06-16T03:13:13.557Z,1026.8
2017-06-16T03:14:13.554Z,1026.77
2017-06-16T03:15:13.552Z,1026.81
2017-06-16T03:16:13.548Z,1026.79
2017-06-16T03:17:13.545Z,1026.8
2017-06-16T03:18:13.542Z,1026.81
2017-06-16T03:19:13.539Z,1026.84
2017-06-16T03:20:13.536Z,1026.75
2017-06-16T03:21:13.533Z,1026.72
2017-06-16T03:22:13.531Z,1026.73
2017-06-16T03:23:13.527Z,1026.69
2017-06-16T03:24:13.524Z,1026.71
2017-06-16T03:25:13.521Z,1026.7
2017-06-16T03:26:13.519Z,1026.74
2017-06-16T03:27:13.516Z,1026.76
2017-06-16T03:28:13.513Z,1026.84
2017-06-16T03:29:13.510Z,1026.84
2017-06-16T03:30:13.508Z,1026.78
2017-06-16T03:31:13.504Z,1026.82
2017-06-16T03:32:13.502Z,1026.84
2017-06-16T03:33:13.499Z,1026.8
2017-06-16T03:34:13.496Z,1026.77
2017-06-16T03:35:13.494Z,1026.78
2017-06-16T03:36:13.491Z,1026.73
2017-06-16T03:37:13.488Z,1026.71
2017-06-16T03:38:13.485Z,1026.7
2017-06-16T03:39:13.482Z,1026.68
2017-06-16T03:40:13.480Z,1026.69
2017-06-16T03:41:13.476Z,1026.74
2017-06-16T03:42:13.474Z,1026.71
2017-06-16T03:43:13.473Z,1026.77
2017-06-16T03:44:13.470Z,1026.67
2017-06-16T03:45:13.467Z,1026.71
2017-06-16T03:46:13.464Z,1026.68
2017-06-16T03:47:13.462Z,1026.68
2017-06-16T03:48:13.459Z,1026.69
2017-06-16T03:49:13.456Z,1026.68
2017-06-16T03:50:13.453Z,1026.68
2017-06-16T03:51:13.451Z,1026.72
2017-06-16T03:52:13.448Z,1026.69
2017-06-16T03:53:13.446Z,1026.75
2017-06-16T03:54:13.443Z,1026.75
2017-06-16T03:55:13.441Z,1026.75
2017-06-16T03:56:13.438Z,1026.76
2017-06-16T03:57:13.436Z,1026.75
2017-06-16T03:58:13.463Z,1026.78
2017-06-16T03:59:13.431Z,1026.77
2017-06-16T04:00:13.429Z,1026.74
2017-06-16T04:01:13.426Z,1026.78
2017-06-16T04:02:13.423Z,1026.77
2017-06-16T04:03:13.420Z,1026.75
2017-06-16T04:04:13.421Z,1026.73
2017-06-16T04:05:13.415Z,1026.7
2017-06-16T04:06:13.415Z,1026.69
2017-06-16T04:07:13.410Z,1026.67
2017-06-16T04:08:13.408Z,1026.72
2017-06-16T04:09:13.406Z,1026.71
2017-06-16T04:10:13.404Z,1026.74
2017-06-16T04:11:13.400Z,1026.71
2017-06-16T04:12:13.398Z,1026.66
2017-06-16T04:13:13.396Z,1026.65
2017-06-16T04:14:13.392Z,1026.66
2017-06-16T04:15:13.390Z,1026.68
2017-06-16T04:16:13.393Z,1026.69
2017-06-16T04:17:13.386Z,1026.73
2017-06-16T04:18:13.383Z,1026.73
2017-06-16T04:19:13.381Z,1026.75
2017-06-16T04:20:13.380Z,1026.81
2017-06-16T04:21:13.377Z,1026.8
2017-06-16T04:22:13.374Z,1026.81
2017-06-16T04:23:13.371Z,1026.81
2017-06-16T04:24:13.370Z,1026.83
2017-06-16T04:25:13.367Z,1026.86
2017-06-16T04:26:13.364Z,1026.86
2017-06-16T04:27:13.362Z,1026.86
2017-06-16T04:28:13.360Z,1026.86
2017-06-16T04:29:13.356Z,1026.86
2017-06-16T04:30:13.354Z,1026.89
2017-06-16T04:31:13.353Z,1026.84
2017-06-16T04:32:13.351Z,1026.8
2017-06-16T04:33:13.348Z,1026.76
2017-06-16T04:34:13.346Z,1026.81
2017-06-16T04:35:13.344Z,1026.69
2017-06-16T04:36:13.341Z,1026.68
2017-06-16T04:37:13.339Z,1026.67
2017-06-16T04:38:13.337Z,1026.63
2017-06-16T04:39:13.335Z,1026.69
2017-06-16T04:40:13.332Z,1026.67
2017-06-16T04:41:13.330Z,1026.68
2017-06-16T04:42:13.328Z,1026.69
2017-06-16T04:43:13.326Z,1026.71
2017-06-16T04:44:13.324Z,1026.62
2017-06-16T04:45:13.322Z,1026.58
2017-06-16T04:46:13.319Z,1026.68
2017-06-16T04:47:13.317Z,1026.66
2017-06-16T04:48:13.316Z,1026.68
2017-06-16T04:49:13.314Z,1026.3
2017-06-16T04:50:13.313Z,1026.3
2017-06-16T04:51:13.310Z,1026.22
2017-06-16T04:52:13.308Z,1026.13
2017-06-16T04:53:13.307Z,1026.01
2017-06-16T04:54:13.305Z,1025.99
2017-06-16T04:55:13.304Z,1026.05
2017-06-16T04:56:13.302Z,1026.14
2017-06-16T04:57:13.300Z,1025.72
2017-06-16T04:58:13.332Z,1025.11
2017-06-16T04:59:13.298Z,1025.26
2017-06-16T05:00:13.298Z,1025.4
2017-06-16T05:01:13.296Z,1025.65
2017-06-16T05:02:13.294Z,1025.74
2017-06-16T05:03:13.293Z,1025.08
2017-06-16T05:04:13.293Z,1024.69
2017-06-16T05:05:13.292Z,1024.6
2017-06-16T05:06:13.291Z,1024.36
2017-06-16T05:07:13.292Z,1023.55
2017-06-16T05:08:13.292Z,1023.82
2017-06-16T05:09:13.294Z,1023.52
2017-06-16T05:10:13.293Z,1023.35
2017-06-16T05:11:13.293Z,1023.08
2017-06-16T05:12:13.297Z,1022.82
2017-06-16T05:13:13.297Z,1022.67
2017-06-16T05:14:13.301Z,1022.52
2017-06-16T05:15:13.304Z,1022.4
2017-06-16T05:16:13.307Z,1022.25
2017-06-16T05:17:13.311Z,1022.06
2017-06-16T05:18:13.315Z,1021.86
2017-06-16T05:19:13.320Z,1021.81
2017-06-16T05:20:13.324Z,1021.68
2017-06-16T05:21:13.330Z,1021.58
2017-06-16T05:22:13.335Z,1021.55
2017-06-16T05:23:13.342Z,1021.54
2017-06-16T05:24:13.348Z,1021.12
2017-06-16T05:25:13.355Z,1021.3
2017-06-16T05:26:13.362Z,1021.18
2017-06-16T05:27:13.369Z,1021.16
2017-06-16T05:28:13.378Z,1021.15
2017-06-16T05:29:13.385Z,1021.1
2017-06-16T05:30:13.394Z,1021.1
2017-06-16T05:31:13.402Z,1021.04
2017-06-16T05:32:13.414Z,1021.01
2017-06-16T05:33:13.422Z,1020.95
2017-06-16T05:34:13.431Z,1020.83
2017-06-16T05:35:13.439Z,1020.78
2017-06-16T05:36:13.449Z,1020.7
2017-06-16T05:37:13.460Z,1020.58
2017-06-16T05:38:13.469Z,1020.46
2017-06-16T05:39:13.479Z,1020.37
2017-06-16T05:40:13.491Z,1020.39
2017-06-16T05:41:13.501Z,1020.26
2017-06-16T05:42:13.511Z,1020.24
2017-06-16T05:43:13.522Z,1020.16
2017-06-16T05:44:13.534Z,1020.14
2017-06-16T05:45:13.545Z,1020.15
2017-06-16T05:46:13.556Z,1019.97
2017-06-16T05:47:13.567Z,1020.14
2017-06-16T05:48:13.580Z,1020.11
2017-06-16T05:49:13.590Z,1018.98
2017-06-16T05:50:13.604Z,1020.72
2017-06-16T05:51:13.617Z,1020.69
2017-06-16T05:52:13.629Z,1020.37
2017-06-16T05:53:13.640Z,1020.26
2017-06-16T05:54:13.653Z,1020.1
2017-06-16T05:55:13.665Z,1020.08
2017-06-16T05:56:13.679Z,1019.42
2017-06-16T05:57:13.691Z,1019.25
2017-06-16T05:58:13.704Z,1020.45
2017-06-16T05:59:13.717Z,1020.15
2017-06-16T06:00:13.729Z,1020.01
2017-06-16T06:01:13.743Z,1019.72
2017-06-16T06:02:13.756Z,1019.85
2017-06-16T06:03:13.770Z,1019.66
2017-06-16T06:04:13.782Z,1019.5
2017-06-16T06:05:13.801Z,1019.31
2017-06-16T06:06:13.810Z,1019.29
2017-06-16T06:07:13.823Z,1019.05
2017-06-16T06:08:13.837Z,1018.97
2017-06-16T06:09:13.851Z,1018.91
2017-06-16T06:10:13.865Z,1018.82
2017-06-16T06:11:13.879Z,1018.78
2017-06-16T06:12:13.894Z,1018.8
2017-06-16T06:13:13.908Z,1018.79
2017-06-16T06:14:13.923Z,1018.45
2017-06-16T06:15:13.938Z,1017.93
2017-06-16T06:16:13.953Z,1018.67
2017-06-16T06:17:13.968Z,1019.38
2017-06-16T06:18:13.984Z,1019.59
2017-06-16T06:19:13.998Z,1020.16
2017-06-16T06:20:14.013Z,1020.71
2017-06-16T06:21:14.028Z,1021
2017-06-16T06:22:14.041Z,1021.42
2017-06-16T06:23:14.055Z,1021.67
2017-06-16T06:24:14.070Z,1021.79
2017-06-16T06:25:14.084Z,1021.96
2017-06-16T06:26:14.099Z,1022.23
2017-06-16T06:27:14.109Z,1022.61
2017-06-16T06:28:14.123Z,1022.94
2017-06-16T06:29:14.134Z,1023.21
2017-06-16T06:30:14.146Z,1023.28
2017-06-16T06:31:14.158Z,1023.43
2017-06-16T06:32:14.169Z,1023.63
2017-06-16T06:33:14.180Z,1023.62
2017-06-16T06:34:14.191Z,1023.14
2017-06-16T06:35:14.202Z,1023.57
2017-06-16T06:36:14.213Z,1023.12
2017-06-16T06:37:14.222Z,1023.41
2017-06-16T06:38:14.232Z,1024
2017-06-16T06:39:14.243Z,1023.25
2017-06-16T06:40:14.253Z,1022.24
2017-06-16T06:41:14.264Z,1021.79
2017-06-16T06:42:14.288Z,1020.94
2017-06-16T06:43:14.283Z,1021.47
2017-06-16T06:44:14.293Z,1020.98
2017-06-16T06:45:14.303Z,1020.18
2017-06-16T06:46:14.314Z,1020.35
2017-06-16T06:47:14.324Z,1020.4
2017-06-16T06:48:14.334Z,1019.69
2017-06-16T06:49:14.346Z,1019.47
2017-06-16T06:50:14.357Z,1020.06
2017-06-16T06:51:14.368Z,1020.56
2017-06-16T06:52:14.380Z,1020.04
2017-06-16T06:53:14.392Z,1020.48
2017-06-16T06:54:14.405Z,1020.98
2017-06-16T06:55:14.414Z,1021.58
2017-06-16T06:56:14.426Z,1022.19
2017-06-16T06:57:14.438Z,1022.67
2017-06-16T06:58:14.449Z,1023.12
2017-06-16T06:59:14.459Z,1023.46
2017-06-16T07:00:14.471Z,1023.87
2017-06-16T07:01:14.482Z,1024.22
2017-06-16T07:02:14.490Z,1024.42
2017-06-16T07:03:14.500Z,1024.7
2017-06-16T07:04:14.510Z,1024.95
2017-06-16T07:05:14.519Z,1025.32
2017-06-16T07:06:14.527Z,1025.55
2017-06-16T07:07:14.536Z,1025.78
2017-06-16T07:08:14.546Z,1026.06
2017-06-16T07:09:14.554Z,1026.3
2017-06-16T07:10:14.562Z,1026.59
2017-06-16T07:11:14.569Z,1026.84
2017-06-16T07:12:14.576Z,1027.14
2017-06-16T07:13:14.581Z,1027.43
2017-06-16T07:14:14.589Z,1027.92
2017-06-16T07:15:14.595Z,1028.36
2017-06-16T07:16:14.605Z,1028.66
2017-06-16T07:17:14.605Z,1028.87
2017-06-16T07:18:14.611Z,1029.07
2017-06-16T07:19:14.616Z,1029.13
2017-06-16T07:20:14.621Z,1029.1
2017-06-16T07:21:14.623Z,1029.08
2017-06-16T07:22:14.626Z,1029.05
2017-06-16T07:23:14.631Z,1028.86
2017-06-16T07:24:14.635Z,1028.82
2017-06-16T07:25:14.636Z,1028.88
2017-06-16T07:26:14.639Z,1028.95
2017-06-16T07:27:14.639Z,1029.03
2017-06-16T07:28:14.641Z,1029.18
2017-06-16T07:29:14.643Z,1029.23
2017-06-16T07:30:14.645Z,1029.25
2017-06-16T07:31:14.646Z,1029.29
2017-06-16T07:32:14.648Z,1029.28
2017-06-16T07:33:14.648Z,1029.3
2017-06-16T07:34:14.648Z,1029.21
2017-06-16T07:35:14.648Z,1029.23
2017-06-16T07:36:14.684Z,1029.2
2017-06-16T07:37:14.649Z,1029.13
2017-06-16T07:38:14.649Z,1029.07
2017-06-16T07:39:14.649Z,1029.02
2017-06-16T07:40:14.649Z,1029
2017-06-16T07:41:14.649Z,1029.08
2017-06-16T07:42:14.650Z,1029.09
2017-06-16T07:43:14.648Z,1029.18
2017-06-16T07:44:14.648Z,1029.15
2017-06-16T07:45:14.647Z,1029.22
2017-06-16T07:46:14.647Z,1029.25
2017-06-16T07:47:14.646Z,1029.22
2017-06-16T07:48:14.646Z,1029.14
2017-06-16T07:49:14.646Z,1029.2
2017-06-16T07:50:14.645Z,1029.2
2017-06-16T07:51:14.644Z,1029.17
2017-06-16T07:52:14.644Z,1029.1
2017-06-16T07:53:14.644Z,1029.04
2017-06-16T07:54:14.642Z,1028.95
2017-06-16T07:55:14.641Z,1028.92
2017-06-16T07:56:14.644Z,1028.78
2017-06-16T07:57:14.639Z,1028.7
2017-06-16T07:58:14.639Z,1028.59
2017-06-16T07:59:14.638Z,1028.5
2017-06-16T08:00:14.639Z,1028.32
2017-06-16T08:01:14.636Z,1028.17
2017-06-16T08:02:14.636Z,1028.03
2017-06-16T08:03:14.637Z,1027.94
2017-06-16T08:04:14.636Z,1027.73
2017-06-16T08:05:14.635Z,1027.51
2017-06-16T08:06:14.634Z,1027.28
2017-06-16T08:07:14.636Z,1026.95
2017-06-16T08:08:14.634Z,1026.9
2017-06-16T08:09:14.635Z,1026.98
2017-06-16T08:10:14.635Z,1025.36
2017-06-16T08:11:14.636Z,1025.11
2017-06-16T08:12:14.637Z,1025.46
2017-06-16T08:13:14.639Z,1026.29
2017-06-16T08:14:14.641Z,1024.85
2017-06-16T08:15:14.644Z,1024.29
2017-06-16T08:16:14.648Z,1023.41
2017-06-16T08:17:14.651Z,1022.94
2017-06-16T08:18:14.657Z,1022.09
2017-06-16T08:19:14.661Z,1022.83
2017-06-16T08:20:14.668Z,1021.96
2017-06-16T08:21:14.674Z,1021.31
2017-06-16T08:22:14.683Z,1020.56
2017-06-16T08:23:14.689Z,1021.38
2017-06-16T08:24:14.698Z,1022.17
2017-06-16T08:25:14.708Z,1022.83
2017-06-16T08:26:14.716Z,1023.42
2017-06-16T08:27:14.724Z,1024.07
2017-06-16T08:28:14.733Z,1024.45
2017-06-16T08:29:14.741Z,1024.87
2017-06-16T08:30:14.749Z,1025.31
2017-06-16T08:31:14.758Z,1025.54
2017-06-16T08:32:14.767Z,1025.82
2017-06-16T08:33:14.775Z,1025.95
2017-06-16T08:34:14.783Z,1026.02
2017-06-16T08:35:14.789Z,1026.13
2017-06-16T08:36:14.797Z,1026.28
2017-06-16T08:37:14.803Z,1026.34
2017-06-16T08:38:14.811Z,1025.85
2017-06-16T08:39:14.818Z,1025.57
2017-06-16T08:40:14.825Z,1024.52
2017-06-16T08:41:14.833Z,1023.55
2017-06-16T08:42:14.839Z,1022.93
2017-06-16T08:43:14.850Z,1022.46
2017-06-16T08:44:14.859Z,1022.08
2017-06-16T08:45:14.863Z,1021.94
2017-06-16T08:46:14.871Z,1021.9
2017-06-16T08:47:14.879Z,1022.71
2017-06-16T08:48:14.888Z,1022.75
2017-06-16T08:49:14.897Z,1022.14
2017-06-16T08:50:14.906Z,1022.04
2017-06-16T08:51:14.915Z,1022.12
2017-06-16T08:52:14.923Z,1022.46
2017-06-16T08:53:14.933Z,1022.65
2017-06-16T08:54:14.943Z,1023.13
2017-06-16T08:55:14.953Z,1023.73
2017-06-16T08:56:14.961Z,1024.2
2017-06-16T08:57:14.969Z,1024.8
2017-06-16T08:58:14.978Z,1025.19
2017-06-16T08:59:14.988Z,1025.41
2017-06-16T09:00:14.998Z,1025.33
2017-06-16T09:01:15.005Z,1025.48
2017-06-16T09:02:15.013Z,1025.6
2017-06-16T09:03:15.021Z,1025.73
2017-06-16T09:04:15.029Z,1025.99
2017-06-16T09:05:15.037Z,1026.23
2017-06-16T09:06:15.045Z,1026.49
2017-06-16T09:07:15.052Z,1026.51
2017-06-16T09:08:15.059Z,1026.74
2017-06-16T09:09:15.067Z,1026.97
2017-06-16T09:10:15.073Z,1027.16
2017-06-16T09:11:15.080Z,1027.23
2017-06-16T09:12:15.085Z,1027.47
2017-06-16T09:13:15.093Z,1027.59
2017-06-16T09:14:15.098Z,1027.76
2017-06-16T09:15:15.104Z,1027.85
2017-06-16T09:16:15.109Z,1027.9
2017-06-16T09:17:15.116Z,1028.03
2017-06-16T09:18:15.119Z,1028.13
2017-06-16T09:19:15.124Z,1027.97
2017-06-16T09:20:15.129Z,1027.94
2017-06-16T09:21:15.133Z,1027.98
2017-06-16T09:22:15.137Z,1028.08
2017-06-16T09:23:15.143Z,1028.27
2017-06-16T09:24:15.145Z,1028.26
2017-06-16T09:25:15.149Z,1028.1
2017-06-16T09:26:15.153Z,1028.11
2017-06-16T09:27:15.156Z,1028.02
2017-06-16T09:28:15.160Z,1027.84
2017-06-16T09:29:15.163Z,1027.78
2017-06-16T09:30:15.167Z,1027.39
2017-06-16T09:31:15.170Z,1027.4
2017-06-16T09:32:15.172Z,1027.45
2017-06-16T09:33:15.177Z,1027.36
2017-06-16T09:34:15.180Z,1027.2
2017-06-16T09:35:15.184Z,1027.1
2017-06-16T09:36:15.186Z,1027.05
2017-06-16T09:37:15.190Z,1026.91
2017-06-16T09:38:15.194Z,1026.76
2017-06-16T09:39:15.198Z,1026.46
2017-06-16T09:40:15.201Z,1026.46
2017-06-16T09:41:15.206Z,1026.52
2017-06-16T09:42:15.209Z,1026.73
2017-06-16T09:43:15.212Z,1026.92
2017-06-16T09:44:15.217Z,1027.12
2017-06-16T09:45:15.221Z,1027.3
2017-06-16T09:46:15.225Z,1027.53
2017-06-16T09:47:15.228Z,1027.69
2017-06-16T09:48:15.233Z,1027.79
2017-06-16T09:49:15.236Z,1027.84
2017-06-16T09:50:15.242Z,1027.92
2017-06-16T09:51:15.243Z,1028
2017-06-16T09:52:15.246Z,1028.1
2017-06-16T09:53:15.250Z,1028.1
2017-06-16T09:54:15.253Z,1028.1
2017-06-16T09:55:15.257Z,1027.85
2017-06-16T09:56:15.260Z,1027.74
2017-06-16T09:57:15.264Z,1027.7
2017-06-16T09:58:15.268Z,1027.61
2017-06-16T09:59:15.270Z,1027.54
2017-06-16T10:00:15.272Z,1027.22
2017-06-16T10:01:15.276Z,1026.97
2017-06-16T10:02:15.280Z,1026.92
2017-06-16T10:03:15.284Z,1026.92
2017-06-16T10:04:15.287Z,1026.86
2017-06-16T10:05:15.291Z,1026.71
2017-06-16T10:06:15.295Z,1026.64
2017-06-16T10:07:15.298Z,1026.35
2017-06-16T10:08:15.302Z,1026.15
2017-06-16T10:09:15.306Z,1026.15
2017-06-16T10:10:15.311Z,1026.13
2017-06-16T10:11:15.314Z,1026.14
2017-06-16T10:12:15.318Z,1026.03
2017-06-16T10:13:15.323Z,1025.84
2017-06-16T10:14:15.331Z,1025.8
2017-06-16T10:15:15.333Z,1025.91
2017-06-16T10:16:15.337Z,1026.11
2017-06-16T10:17:15.342Z,1026.14
2017-06-16T10:18:15.349Z,1026.27
2017-06-16T10:19:15.354Z,1026.41
2017-06-16T10:20:15.358Z,1026.61
2017-06-16T10:21:15.365Z,1026.76
2017-06-16T10:22:15.367Z,1026.82
2017-06-16T10:23:15.372Z,1026.8
2017-06-16T10:24:15.377Z,1026.73
2017-06-16T10:25:15.382Z,1026.75
2017-06-16T10:26:15.387Z,1026.79
2017-06-16T10:27:15.391Z,1026.93
2017-06-16T10:28:15.396Z,1027.02
2017-06-16T10:29:15.401Z,1027.01
2017-06-16T10:30:15.407Z,1027.06
2017-06-16T10:31:15.410Z,1027.07
2017-06-16T10:32:15.416Z,1027.05
2017-06-16T10:33:15.420Z,1027.12
2017-06-16T10:34:15.424Z,1027.13
2017-06-16T10:35:15.429Z,1027.08
2017-06-16T10:36:15.432Z,1026.97
2017-06-16T10:37:15.437Z,1026.91
2017-06-16T10:38:15.441Z,1026.94
2017-06-16T10:39:15.445Z,1026.74
2017-06-16T10:40:15.451Z,1026.85
2017-06-16T10:41:15.454Z,1026.97
2017-06-16T10:42:15.458Z,1027.02
2017-06-16T10:43:15.462Z,1026.97
2017-06-16T10:44:15.467Z,1026.93
2017-06-16T10:45:15.470Z,1026.85
2017-06-16T10:46:15.475Z,1026.76
2017-06-16T10:47:15.480Z,1026.62
2017-06-16T10:48:15.484Z,1026.6
2017-06-16T10:49:15.488Z,1026.59
2017-06-16T10:50:15.493Z,1026.62
2017-06-16T10:51:15.497Z,1026.73
2017-06-16T10:52:15.503Z,1026.79
2017-06-16T10:53:15.506Z,1026.68
2017-06-16T10:54:15.510Z,1026.66
2017-06-16T10:55:15.517Z,1026.8
2017-06-16T10:56:15.519Z,1026.89
2017-06-16T10:57:15.523Z,1026.89
2017-06-16T10:58:15.530Z,1026.78
2017-06-16T10:59:15.532Z,1026.82
2017-06-16T11:00:15.537Z,1026.96
2017-06-16T11:01:15.541Z,1026.97
2017-06-16T11:02:15.545Z,1026.98
2017-06-16T11:03:15.551Z,1026.98
2017-06-16T11:04:15.553Z,1026.96
2017-06-16T11:05:15.558Z,1026.79
2017-06-16T11:06:15.563Z,1026.71
2017-06-16T11:07:15.567Z,1026.66
2017-06-16T11:08:15.571Z,1026.58
2017-06-16T11:09:15.575Z,1026.55
2017-06-16T11:10:15.580Z,1026.43
2017-06-16T11:11:15.584Z,1026.43
2017-06-16T11:12:15.588Z,1026.52
2017-06-16T11:13:15.593Z,1026.62
2017-06-16T11:14:15.597Z,1026.74
2017-06-16T11:15:15.601Z,1026.72
2017-06-16T11:16:15.605Z,1026.77
2017-06-16T11:17:15.610Z,1026.83
2017-06-16T11:18:15.614Z,1026.95
2017-06-16T11:19:15.618Z,1027.05
2017-06-16T11:20:15.623Z,1027.09
2017-06-16T11:21:15.626Z,1027.17
2017-06-16T11:22:15.630Z,1027.23
2017-06-16T11:23:15.635Z,1027.18
2017-06-16T11:24:15.639Z,1027.32
2017-06-16T11:25:15.644Z,1027.38
2017-06-16T11:26:15.646Z,1027.29
2017-06-16T11:27:15.651Z,1027.24
2017-06-16T11:28:15.655Z,1027.13
2017-06-16T11:29:15.658Z,1027.03
2017-06-16T11:30:15.663Z,1026.78
2017-06-16T11:31:15.666Z,1026.59
2017-06-16T11:32:15.671Z,1026.46
2017-06-16T11:33:15.674Z,1026.39
2017-06-16T11:34:15.677Z,1026.25
2017-06-16T11:35:15.682Z,1026.18
2017-06-16T11:36:15.686Z,1026.22
2017-06-16T11:37:15.691Z,1026.35
2017-06-16T11:38:15.994Z,1026.41
2017-06-16T11:39:15.699Z,1026.49
2017-06-16T11:40:15.703Z,1026.65
2017-06-16T11:41:15.708Z,1026.81
2017-06-16T11:42:15.711Z,1026.85
2017-06-16T11:43:15.716Z,1027.01
2017-06-16T11:44:15.719Z,1026.99
2017-06-16T11:45:15.724Z,1027.03
2017-06-16T11:46:15.727Z,1027
2017-06-16T11:47:15.731Z,1027
2017-06-16T11:48:15.735Z,1026.96
2017-06-16T11:49:15.739Z,1026.87
2017-06-16T11:50:15.742Z,1026.72
2017-06-16T11:51:15.746Z,1026.58
2017-06-16T11:52:15.750Z,1026.43
2017-06-16T11:53:15.755Z,1026.38
2017-06-16T11:54:15.759Z,1026.34
2017-06-16T11:55:15.763Z,1026.33
2017-06-16T11:56:15.766Z,1026.37
2017-06-16T11:57:15.771Z,1026.38
2017-06-16T11:58:15.773Z,1026.49
2017-06-16T11:59:15.778Z,1026.46
2017-06-16T12:00:15.782Z,1026.62
2017-06-16T12:01:15.785Z,1026.67
2017-06-16T12:02:15.790Z,1026.75
2017-06-16T12:03:15.795Z,1026.69
2017-06-16T12:04:15.798Z,1026.75
2017-06-16T12:05:15.802Z,1026.85
2017-06-16T12:06:15.806Z,1027.01
2017-06-16T12:07:15.810Z,1027.11
2017-06-16T12:08:15.814Z,1027.29